sensor_id;sensor_type;location;lat;lon;timestamp;temperature;humidity
18717;DHT22;9487;50.892;6.906;2023-02-03T00:01:25;9.70;99.90
18717;DHT22;9487;50.892;6.906;2023-02-03T00:03:52;9.70;99.90
18717;DHT22;9487;50.892;6.906;2023-02-03T00:06:20;9.70;99.90
18717;DHT22;9487;50.892;6.906;2023-02-03T00:08:47;9.80;99.90
18717;DHT22;9487;50.892;6.906;2023-02-03T00:11:15;9.80;99.90
18717;DHT22;9487;50.892;6.906;2023-02-03T00:13:42;9.80;99.90
18717;DHT22;9487;50.892;6.906;2023-02-03T00:16:08;9.80;99.90
18717;DHT22;9487;50.892;6.906;2023-02-03T00:18:35;9.90;99.90
18717;DHT22;9487;50.892;6.906;2023-02-03T00:21:03;10.10;99.90
18717;DHT22;9487;50.892;6.906;2023-02-03T00:23:32;10.00;99.90
18717;DHT22;9487;50.892;6.906;2023-02-03T00:26:06;9.90;99.90
18717;DHT22;9487;50.892;6.906;2023-02-03T00:28:33;9.90;99.90
18717;DHT22;9487;50.892;6.906;2023-02-03T00:30:59;9.80;99.90
18717;DHT22;9487;50.892;6.906;2023-02-03T00:33:26;9.80;99.90
18717;DHT22;9487;50.892;6.906;2023-02-03T00:35:53;9.80;99.90
18717;DHT22;9487;50.892;6.906;2023-02-03T00:38:20;9.80;99.90
18717;DHT22;9487;50.892;6.906;2023-02-03T00:40:52;9.80;99.90
18717;DHT22;9487;50.892;6.906;2023-02-03T00:43:20;9.80;99.90
18717;DHT22;9487;50.892;6.906;2023-02-03T00:45:47;9.90;99.90
18717;DHT22;9487;50.892;6.906;2023-02-03T00:48:14;9.80;99.90
18717;DHT22;9487;50.892;6.906;2023-02-03T00:50:40;9.80;99.90
18717;DHT22;9487;50.892;6.906;2023-02-03T00:53:07;9.80;99.90
18717;DHT22;9487;50.892;6.906;2023-02-03T00:55:34;9.80;99.90
18717;DHT22;9487;50.892;6.906;2023-02-03T00:58:02;9.90;99.90
18717;DHT22;9487;50.892;6.906;2023-02-03T01:00:29;9.80;99.90
18717;DHT22;9487;50.892;6.906;2023-02-03T01:02:56;9.80;99.90
18717;DHT22;9487;50.892;6.906;2023-02-03T01:05:23;9.80;99.90
18717;DHT22;9487;50.892;6.906;2023-02-03T01:07:49;9.80;99.90
18717;DHT22;9487;50.892;6.906;2023-02-03T01:10:16;9.80;99.90
18717;DHT22;9487;50.892;6.906;2023-02-03T01:12:43;9.80;99.90
18717;DHT22;9487;50.892;6.906;2023-02-03T01:15:11;9.80;99.90
18717;DHT22;9487;50.892;6.906;2023-02-03T01:17:38;9.80;99.90
18717;DHT22;9487;50.892;6.906;2023-02-03T01:20:06;9.80;99.90
18717;DHT22;9487;50.892;6.906;2023-02-03T01:22:32;9.80;99.90
18717;DHT22;9487;50.892;6.906;2023-02-03T01:24:59;9.80;99.90
18717;DHT22;9487;50.892;6.906;2023-02-03T01:27:26;9.80;99.90
18717;DHT22;9487;50.892;6.906;2023-02-03T01:29:53;9.80;99.90
18717;DHT22;9487;50.892;6.906;2023-02-03T01:32:21;9.90;99.90
18717;DHT22;9487;50.892;6.906;2023-02-03T01:34:48;9.80;99.90
18717;DHT22;9487;50.892;6.906;2023-02-03T01:37:15;9.90;99.90
18717;DHT22;9487;50.892;6.906;2023-02-03T01:39:42;9.90;99.90
18717;DHT22;9487;50.892;6.906;2023-02-03T01:42:11;9.90;99.90
18717;DHT22;9487;50.892;6.906;2023-02-03T01:44:44;9.90;99.90
18717;DHT22;9487;50.892;6.906;2023-02-03T01:47:26;10.00;99.90
18717;DHT22;9487;50.892;6.906;2023-02-03T01:50:02;9.90;99.90
18717;DHT22;9487;50.892;6.906;2023-02-03T01:52:31;9.80;99.90
18717;DHT22;9487;50.892;6.906;2023-02-03T01:55:00;9.90;99.90
18717;DHT22;9487;50.892;6.906;2023-02-03T01:57:31;9.80;99.90
18717;DHT22;9487;50.892;6.906;2023-02-03T02:00:00;9.90;99.90
18717;DHT22;9487;50.892;6.906;2023-02-03T02:02:29;9.90;99.90
18717;DHT22;9487;50.892;6.906;2023-02-03T02:05:02;9.90;99.90
18717;DHT22;9487;50.892;6.906;2023-02-03T02:07:31;9.80;99.90
18717;DHT22;9487;50.892;6.906;2023-02-03T02:09:59;9.80;99.90
18717;DHT22;9487;50.892;6.906;2023-02-03T02:12:26;9.80;99.90
18717;DHT22;9487;50.892;6.906;2023-02-03T02:14:53;9.90;99.90
18717;DHT22;9487;50.892;6.906;2023-02-03T02:17:36;9.90;99.90
18717;DHT22;9487;50.892;6.906;2023-02-03T02:20:29;9.90;99.90
18717;DHT22;9487;50.892;6.906;2023-02-03T02:29:19;9.90;99.90
18717;DHT22;9487;50.892;6.906;2023-02-03T02:32:17;9.90;99.90
18717;DHT22;9487;50.892;6.906;2023-02-03T02:34:52;9.80;99.90
18717;DHT22;9487;50.892;6.906;2023-02-03T02:37:28;9.80;99.90
18717;DHT22;9487;50.892;6.906;2023-02-03T02:40:06;9.80;99.90
18717;DHT22;9487;50.892;6.906;2023-02-03T02:42:40;9.80;99.90
18717;DHT22;9487;50.892;6.906;2023-02-03T02:45:16;9.80;99.90
18717;DHT22;9487;50.892;6.906;2023-02-03T02:47:46;9.70;99.90
18717;DHT22;9487;50.892;6.906;2023-02-03T02:50:15;9.80;99.90
18717;DHT22;9487;50.892;6.906;2023-02-03T02:52:46;9.80;99.90
18717;DHT22;9487;50.892;6.906;2023-02-03T02:55:17;9.80;99.90
18717;DHT22;9487;50.892;6.906;2023-02-03T02:57:50;9.80;99.90
18717;DHT22;9487;50.892;6.906;2023-02-03T03:00:17;9.80;99.90
18717;DHT22;9487;50.892;6.906;2023-02-03T03:02:45;9.80;99.90
18717;DHT22;9487;50.892;6.906;2023-02-03T03:05:12;9.90;99.90
18717;DHT22;9487;50.892;6.906;2023-02-03T03:07:43;9.80;99.90
18717;DHT22;9487;50.892;6.906;2023-02-03T03:10:13;9.70;99.90
18717;DHT22;9487;50.892;6.906;2023-02-03T03:12:45;9.80;99.90
18717;DHT22;9487;50.892;6.906;2023-02-03T03:15:17;9.80;99.90
18717;DHT22;9487;50.892;6.906;2023-02-03T03:17:54;9.80;99.90
18717;DHT22;9487;50.892;6.906;2023-02-03T03:20:25;9.80;99.90
18717;DHT22;9487;50.892;6.906;2023-02-03T03:22:55;9.80;99.90
18717;DHT22;9487;50.892;6.906;2023-02-03T03:25:27;9.80;99.90
18717;DHT22;9487;50.892;6.906;2023-02-03T03:27:58;9.80;99.90
18717;DHT22;9487;50.892;6.906;2023-02-03T03:30:28;9.80;99.90
18717;DHT22;9487;50.892;6.906;2023-02-03T03:32:59;9.80;99.90
18717;DHT22;9487;50.892;6.906;2023-02-03T03:35:31;9.80;99.90
18717;DHT22;9487;50.892;6.906;2023-02-03T03:38:05;9.80;99.90
18717;DHT22;9487;50.892;6.906;2023-02-03T03:40:37;9.70;99.90
18717;DHT22;9487;50.892;6.906;2023-02-03T03:43:09;9.80;99.90
18717;DHT22;9487;50.892;6.906;2023-02-03T03:45:44;9.80;99.90
18717;DHT22;9487;50.892;6.906;2023-02-03T03:48:18;9.80;99.90
18717;DHT22;9487;50.892;6.906;2023-02-03T03:50:51;9.80;99.90
18717;DHT22;9487;50.892;6.906;2023-02-03T03:53:19;9.80;99.90
18717;DHT22;9487;50.892;6.906;2023-02-03T03:55:50;9.80;99.90
18717;DHT22;9487;50.892;6.906;2023-02-03T03:58:21;9.70;99.90
18717;DHT22;9487;50.892;6.906;2023-02-03T04:00:52;9.80;99.90
18717;DHT22;9487;50.892;6.906;2023-02-03T04:03:23;9.80;99.90
18717;DHT22;9487;50.892;6.906;2023-02-03T04:05:50;9.80;99.90
18717;DHT22;9487;50.892;6.906;2023-02-03T04:08:17;9.80;99.90
18717;DHT22;9487;50.892;6.906;2023-02-03T04:10:44;9.80;99.90
18717;DHT22;9487;50.892;6.906;2023-02-03T04:13:11;9.80;99.90
18717;DHT22;9487;50.892;6.906;2023-02-03T04:15:40;9.80;99.90
18717;DHT22;9487;50.892;6.906;2023-02-03T04:18:09;9.80;99.90
18717;DHT22;9487;50.892;6.906;2023-02-03T04:20:38;9.80;99.90
18717;DHT22;9487;50.892;6.906;2023-02-03T04:23:05;9.80;99.90
18717;DHT22;9487;50.892;6.906;2023-02-03T04:25:32;9.80;99.90
18717;DHT22;9487;50.892;6.906;2023-02-03T04:27:59;9.80;99.90
18717;DHT22;9487;50.892;6.906;2023-02-03T04:30:26;9.80;99.90
18717;DHT22;9487;50.892;6.906;2023-02-03T04:32:53;9.80;99.90
18717;DHT22;9487;50.892;6.906;2023-02-03T04:35:20;9.80;99.90
18717;DHT22;9487;50.892;6.906;2023-02-03T04:37:48;9.70;99.90
18717;DHT22;9487;50.892;6.906;2023-02-03T04:40:16;9.80;99.90
18717;DHT22;9487;50.892;6.906;2023-02-03T04:42:43;9.80;99.90
18717;DHT22;9487;50.892;6.906;2023-02-03T04:45:10;9.80;99.90
18717;DHT22;9487;50.892;6.906;2023-02-03T04:47:38;9.80;99.90
18717;DHT22;9487;50.892;6.906;2023-02-03T04:50:05;9.80;99.90
18717;DHT22;9487;50.892;6.906;2023-02-03T04:52:32;9.80;99.90
18717;DHT22;9487;50.892;6.906;2023-02-03T04:55:00;9.70;99.90
18717;DHT22;9487;50.892;6.906;2023-02-03T04:57:28;9.70;99.90
18717;DHT22;9487;50.892;6.906;2023-02-03T04:59:55;9.80;99.90
18717;DHT22;9487;50.892;6.906;2023-02-03T05:02:22;9.80;99.90
18717;DHT22;9487;50.892;6.906;2023-02-03T05:04:48;9.80;99.90
18717;DHT22;9487;50.892;6.906;2023-02-03T05:07:15;9.80;99.90
18717;DHT22;9487;50.892;6.906;2023-02-03T05:09:42;9.70;99.90
18717;DHT22;9487;50.892;6.906;2023-02-03T05:12:10;9.80;99.90
18717;DHT22;9487;50.892;6.906;2023-02-03T05:14:37;9.80;99.90
18717;DHT22;9487;50.892;6.906;2023-02-03T05:17:04;9.80;99.90
18717;DHT22;9487;50.892;6.906;2023-02-03T05:19:31;9.80;99.90
18717;DHT22;9487;50.892;6.906;2023-02-03T05:21:57;9.80;99.90
18717;DHT22;9487;50.892;6.906;2023-02-03T05:24:24;9.80;99.90
18717;DHT22;9487;50.892;6.906;2023-02-03T05:26:51;9.80;99.90
18717;DHT22;9487;50.892;6.906;2023-02-03T05:29:19;9.80;99.90
18717;DHT22;9487;50.892;6.906;2023-02-03T05:31:46;9.80;99.90
18717;DHT22;9487;50.892;6.906;2023-02-03T05:34:13;9.80;99.90
18717;DHT22;9487;50.892;6.906;2023-02-03T05:36:40;9.70;99.90
18717;DHT22;9487;50.892;6.906;2023-02-03T05:39:06;9.70;99.90
18717;DHT22;9487;50.892;6.906;2023-02-03T05:41:33;9.70;99.90
18717;DHT22;9487;50.892;6.906;2023-02-03T05:44:19;9.70;99.90
18717;DHT22;9487;50.892;6.906;2023-02-03T05:46:47;9.70;99.90
18717;DHT22;9487;50.892;6.906;2023-02-03T05:49:14;9.80;99.90
18717;DHT22;9487;50.892;6.906;2023-02-03T05:51:41;9.80;99.90
18717;DHT22;9487;50.892;6.906;2023-02-03T05:54:08;9.80;99.90
18717;DHT22;9487;50.892;6.906;2023-02-03T05:56:36;9.80;99.90
18717;DHT22;9487;50.892;6.906;2023-02-03T05:59:03;9.70;99.90
18717;DHT22;9487;50.892;6.906;2023-02-03T06:01:32;9.70;99.90
18717;DHT22;9487;50.892;6.906;2023-02-03T06:04:00;9.80;99.90
18717;DHT22;9487;50.892;6.906;2023-02-03T06:06:27;9.80;99.90
18717;DHT22;9487;50.892;6.906;2023-02-03T06:08:58;9.80;99.90
18717;DHT22;9487;50.892;6.906;2023-02-03T06:11:25;9.80;99.90
18717;DHT22;9487;50.892;6.906;2023-02-03T06:13:53;9.80;99.90
18717;DHT22;9487;50.892;6.906;2023-02-03T06:16:20;9.80;99.90
18717;DHT22;9487;50.892;6.906;2023-02-03T06:18:50;9.80;99.90
18717;DHT22;9487;50.892;6.906;2023-02-03T06:21:17;9.80;99.90
18717;DHT22;9487;50.892;6.906;2023-02-03T06:23:44;9.90;99.90
18717;DHT22;9487;50.892;6.906;2023-02-03T06:26:11;9.90;99.90
18717;DHT22;9487;50.892;6.906;2023-02-03T06:28:38;9.90;99.90
18717;DHT22;9487;50.892;6.906;2023-02-03T06:31:05;9.80;99.90
18717;DHT22;9487;50.892;6.906;2023-02-03T06:33:33;9.90;99.90
18717;DHT22;9487;50.892;6.906;2023-02-03T06:36:01;9.90;99.90
18717;DHT22;9487;50.892;6.906;2023-02-03T06:38:28;9.90;99.90
18717;DHT22;9487;50.892;6.906;2023-02-03T06:40:54;9.90;99.90
18717;DHT22;9487;50.892;6.906;2023-02-03T06:43:21;9.90;99.90
18717;DHT22;9487;50.892;6.906;2023-02-03T06:45:48;9.90;99.90
18717;DHT22;9487;50.892;6.906;2023-02-03T06:48:15;10.00;99.90
18717;DHT22;9487;50.892;6.906;2023-02-03T06:50:42;10.00;99.90
18717;DHT22;9487;50.892;6.906;2023-02-03T06:53:11;10.00;99.90
18717;DHT22;9487;50.892;6.906;2023-02-03T06:55:38;10.00;99.90
18717;DHT22;9487;50.892;6.906;2023-02-03T06:58:05;10.00;99.90
18717;DHT22;9487;50.892;6.906;2023-02-03T07:00:31;10.00;99.90
18717;DHT22;9487;50.892;6.906;2023-02-03T07:02:58;10.00;99.90
18717;DHT22;9487;50.892;6.906;2023-02-03T07:05:26;10.00;99.90
18717;DHT22;9487;50.892;6.906;2023-02-03T07:07:53;10.00;99.90
18717;DHT22;9487;50.892;6.906;2023-02-03T07:10:21;10.00;99.90
18717;DHT22;9487;50.892;6.906;2023-02-03T07:12:48;10.00;99.90
18717;DHT22;9487;50.892;6.906;2023-02-03T07:15:16;10.00;99.90
18717;DHT22;9487;50.892;6.906;2023-02-03T07:17:43;10.00;99.90
18717;DHT22;9487;50.892;6.906;2023-02-03T07:20:19;9.90;99.90
18717;DHT22;9487;50.892;6.906;2023-02-03T07:22:50;10.00;99.90
18717;DHT22;9487;50.892;6.906;2023-02-03T07:25:17;10.00;99.90
18717;DHT22;9487;50.892;6.906;2023-02-03T07:27:45;9.90;99.90
18717;DHT22;9487;50.892;6.906;2023-02-03T07:30:13;10.00;99.90
18717;DHT22;9487;50.892;6.906;2023-02-03T07:32:40;10.00;99.90
18717;DHT22;9487;50.892;6.906;2023-02-03T07:35:07;10.00;99.90
18717;DHT22;9487;50.892;6.906;2023-02-03T07:37:34;10.00;99.90
18717;DHT22;9487;50.892;6.906;2023-02-03T07:40:00;10.10;99.90
18717;DHT22;9487;50.892;6.906;2023-02-03T07:42:27;10.10;99.90
18717;DHT22;9487;50.892;6.906;2023-02-03T07:44:55;10.10;99.90
18717;DHT22;9487;50.892;6.906;2023-02-03T07:47:22;10.00;99.90
18717;DHT22;9487;50.892;6.906;2023-02-03T07:49:49;10.00;99.90
18717;DHT22;9487;50.892;6.906;2023-02-03T07:52:16;10.00;99.90
18717;DHT22;9487;50.892;6.906;2023-02-03T07:54:42;10.00;99.90
18717;DHT22;9487;50.892;6.906;2023-02-03T07:57:09;10.00;99.90
18717;DHT22;9487;50.892;6.906;2023-02-03T07:59:36;10.00;99.90
18717;DHT22;9487;50.892;6.906;2023-02-03T08:02:04;10.00;99.90
18717;DHT22;9487;50.892;6.906;2023-02-03T08:04:33;10.00;99.90
18717;DHT22;9487;50.892;6.906;2023-02-03T08:07:00;10.00;99.90
18717;DHT22;9487;50.892;6.906;2023-02-03T08:09:27;10.00;99.90
18717;DHT22;9487;50.892;6.906;2023-02-03T08:11:54;10.00;99.90
18717;DHT22;9487;50.892;6.906;2023-02-03T08:14:21;10.00;99.90
18717;DHT22;9487;50.892;6.906;2023-02-03T08:16:48;10.10;99.90
18717;DHT22;9487;50.892;6.906;2023-02-03T08:19:16;10.10;99.90
18717;DHT22;9487;50.892;6.906;2023-02-03T08:21:43;10.10;99.90
18717;DHT22;9487;50.892;6.906;2023-02-03T08:24:10;10.10;99.90
18717;DHT22;9487;50.892;6.906;2023-02-03T08:26:37;10.10;99.90
18717;DHT22;9487;50.892;6.906;2023-02-03T08:29:04;10.00;99.90
18717;DHT22;9487;50.892;6.906;2023-02-03T08:31:31;10.10;99.90
18717;DHT22;9487;50.892;6.906;2023-02-03T08:33:57;10.10;99.90
18717;DHT22;9487;50.892;6.906;2023-02-03T08:36:26;10.10;99.90
18717;DHT22;9487;50.892;6.906;2023-02-03T08:38:52;10.10;99.90
18717;DHT22;9487;50.892;6.906;2023-02-03T08:41:19;10.10;99.90
18717;DHT22;9487;50.892;6.906;2023-02-03T08:43:46;10.10;99.90
18717;DHT22;9487;50.892;6.906;2023-02-03T08:46:13;10.10;99.90
18717;DHT22;9487;50.892;6.906;2023-02-03T08:48:40;10.10;99.90
18717;DHT22;9487;50.892;6.906;2023-02-03T08:51:12;10.10;99.90
18717;DHT22;9487;50.892;6.906;2023-02-03T08:53:40;10.00;99.90
18717;DHT22;9487;50.892;6.906;2023-02-03T08:56:08;10.00;99.90
18717;DHT22;9487;50.892;6.906;2023-02-03T08:58:35;10.00;99.90
18717;DHT22;9487;50.892;6.906;2023-02-03T09:01:07;10.00;99.90
18717;DHT22;9487;50.892;6.906;2023-02-03T09:03:35;10.00;99.90
18717;DHT22;9487;50.892;6.906;2023-02-03T09:06:03;9.90;99.90
18717;DHT22;9487;50.892;6.906;2023-02-03T09:08:30;9.90;99.90
18717;DHT22;9487;50.892;6.906;2023-02-03T09:10:58;9.90;99.90
18717;DHT22;9487;50.892;6.906;2023-02-03T09:13:25;9.90;99.90
18717;DHT22;9487;50.892;6.906;2023-02-03T09:15:52;9.90;99.90
18717;DHT22;9487;50.892;6.906;2023-02-03T09:18:19;10.00;99.90
18717;DHT22;9487;50.892;6.906;2023-02-03T09:20:45;9.90;99.90
18717;DHT22;9487;50.892;6.906;2023-02-03T09:23:12;9.90;99.90
18717;DHT22;9487;50.892;6.906;2023-02-03T09:25:39;9.90;99.90
18717;DHT22;9487;50.892;6.906;2023-02-03T09:28:07;9.90;99.90
18717;DHT22;9487;50.892;6.906;2023-02-03T09:30:34;9.90;99.90
18717;DHT22;9487;50.892;6.906;2023-02-03T09:33:01;9.90;99.90
18717;DHT22;9487;50.892;6.906;2023-02-03T09:35:27;9.90;99.90
18717;DHT22;9487;50.892;6.906;2023-02-03T09:37:54;9.90;99.90
18717;DHT22;9487;50.892;6.906;2023-02-03T09:40:26;9.90;99.90
18717;DHT22;9487;50.892;6.906;2023-02-03T09:43:14;9.90;99.90
18717;DHT22;9487;50.892;6.906;2023-02-03T09:45:46;9.90;99.90
18717;DHT22;9487;50.892;6.906;2023-02-03T09:48:15;9.90;99.90
18717;DHT22;9487;50.892;6.906;2023-02-03T09:50:45;9.80;99.90
18717;DHT22;9487;50.892;6.906;2023-02-03T09:53:26;9.90;99.90
18717;DHT22;9487;50.892;6.906;2023-02-03T09:55:54;9.70;99.90
18717;DHT22;9487;50.892;6.906;2023-02-03T09:58:22;9.80;99.90
18717;DHT22;9487;50.892;6.906;2023-02-03T10:00:51;9.80;99.90
18717;DHT22;9487;50.892;6.906;2023-02-03T10:03:27;9.80;99.90
18717;DHT22;9487;50.892;6.906;2023-02-03T10:06:17;9.70;99.90
18717;DHT22;9487;50.892;6.906;2023-02-03T10:09:15;9.70;99.90
18717;DHT22;9487;50.892;6.906;2023-02-03T10:12:00;9.70;99.90
18717;DHT22;9487;50.892;6.906;2023-02-03T10:14:43;9.70;99.90
18717;DHT22;9487;50.892;6.906;2023-02-03T10:17:23;9.50;99.90
18717;DHT22;9487;50.892;6.906;2023-02-03T10:19:57;9.60;99.90
18717;DHT22;9487;50.892;6.906;2023-02-03T10:22:29;9.60;99.90
18717;DHT22;9487;50.892;6.906;2023-02-03T10:25:00;9.60;99.90
18717;DHT22;9487;50.892;6.906;2023-02-03T10:27:29;9.60;99.90
18717;DHT22;9487;50.892;6.906;2023-02-03T10:30:02;9.50;99.90
18717;DHT22;9487;50.892;6.906;2023-02-03T10:32:30;9.40;99.90
18717;DHT22;9487;50.892;6.906;2023-02-03T10:34:59;9.40;99.90
18717;DHT22;9487;50.892;6.906;2023-02-03T10:37:30;9.40;99.90
18717;DHT22;9487;50.892;6.906;2023-02-03T10:40:00;9.30;99.90
18717;DHT22;9487;50.892;6.906;2023-02-03T10:42:29;9.30;99.90
18717;DHT22;9487;50.892;6.906;2023-02-03T10:45:18;9.20;99.90
18717;DHT22;9487;50.892;6.906;2023-02-03T10:47:49;9.20;99.90
18717;DHT22;9487;50.892;6.906;2023-02-03T10:50:19;9.20;99.90
18717;DHT22;9487;50.892;6.906;2023-02-03T10:52:46;9.10;99.90
18717;DHT22;9487;50.892;6.906;2023-02-03T10:55:30;9.20;99.90
18717;DHT22;9487;50.892;6.906;2023-02-03T10:57:57;9.10;99.90
18717;DHT22;9487;50.892;6.906;2023-02-03T11:00:33;9.20;99.90
18717;DHT22;9487;50.892;6.906;2023-02-03T11:03:05;9.10;99.90
18717;DHT22;9487;50.892;6.906;2023-02-03T11:05:33;9.20;99.90
18717;DHT22;9487;50.892;6.906;2023-02-03T11:08:00;9.20;99.90
18717;DHT22;9487;50.892;6.906;2023-02-03T11:10:34;9.20;99.90
18717;DHT22;9487;50.892;6.906;2023-02-03T11:13:15;9.20;99.90
18717;DHT22;9487;50.892;6.906;2023-02-03T11:15:56;9.20;99.90
18717;DHT22;9487;50.892;6.906;2023-02-03T11:18:35;9.30;99.90
18717;DHT22;9487;50.892;6.906;2023-02-03T11:21:10;9.30;99.90
18717;DHT22;9487;50.892;6.906;2023-02-03T11:23:45;9.30;99.90
18717;DHT22;9487;50.892;6.906;2023-02-03T11:26:14;9.40;99.90
18717;DHT22;9487;50.892;6.906;2023-02-03T11:28:46;9.40;99.90
18717;DHT22;9487;50.892;6.906;2023-02-03T11:31:19;9.40;99.90
18717;DHT22;9487;50.892;6.906;2023-02-03T11:33:48;9.40;99.90
18717;DHT22;9487;50.892;6.906;2023-02-03T11:36:16;9.40;99.90
18717;DHT22;9487;50.892;6.906;2023-02-03T11:38:43;9.50;99.90
18717;DHT22;9487;50.892;6.906;2023-02-03T11:41:18;9.60;99.90
18717;DHT22;9487;50.892;6.906;2023-02-03T11:43:46;9.60;99.90
18717;DHT22;9487;50.892;6.906;2023-02-03T11:46:14;9.60;99.90
18717;DHT22;9487;50.892;6.906;2023-02-03T11:48:55;9.70;99.90
18717;DHT22;9487;50.892;6.906;2023-02-03T11:51:32;9.70;99.90
18717;DHT22;9487;50.892;6.906;2023-02-03T11:54:16;9.70;99.90
18717;DHT22;9487;50.892;6.906;2023-02-03T11:57:06;9.70;99.90
18717;DHT22;9487;50.892;6.906;2023-02-03T11:59:53;9.80;99.90
18717;DHT22;9487;50.892;6.906;2023-02-03T12:05:44;9.70;99.90
18717;DHT22;9487;50.892;6.906;2023-02-03T12:08:22;9.80;99.90
18717;DHT22;9487;50.892;6.906;2023-02-03T12:11:02;9.80;99.90
18717;DHT22;9487;50.892;6.906;2023-02-03T12:13:47;9.80;99.90
18717;DHT22;9487;50.892;6.906;2023-02-03T12:16:35;9.80;99.90
18717;DHT22;9487;50.892;6.906;2023-02-03T12:19:10;9.90;99.90
18717;DHT22;9487;50.892;6.906;2023-02-03T12:21:43;10.00;99.90
18717;DHT22;9487;50.892;6.906;2023-02-03T12:24:21;9.90;99.90
18717;DHT22;9487;50.892;6.906;2023-02-03T12:26:59;9.90;99.90
18717;DHT22;9487;50.892;6.906;2023-02-03T12:29:31;10.00;99.90
18717;DHT22;9487;50.892;6.906;2023-02-03T12:32:06;9.90;99.90
18717;DHT22;9487;50.892;6.906;2023-02-03T12:34:39;10.00;99.90
18717;DHT22;9487;50.892;6.906;2023-02-03T12:37:14;9.90;99.90
18717;DHT22;9487;50.892;6.906;2023-02-03T12:39:45;9.90;99.90
18717;DHT22;9487;50.892;6.906;2023-02-03T12:42:19;9.90;99.90
18717;DHT22;9487;50.892;6.906;2023-02-03T12:44:51;9.90;99.90
18717;DHT22;9487;50.892;6.906;2023-02-03T12:47:24;10.10;99.90
18717;DHT22;9487;50.892;6.906;2023-02-03T12:49:56;10.00;99.90
18717;DHT22;9487;50.892;6.906;2023-02-03T12:52:29;10.00;99.90
18717;DHT22;9487;50.892;6.906;2023-02-03T12:55:05;10.00;99.90
18717;DHT22;9487;50.892;6.906;2023-02-03T12:57:38;10.00;99.90
18717;DHT22;9487;50.892;6.906;2023-02-03T13:00:17;10.10;99.90
18717;DHT22;9487;50.892;6.906;2023-02-03T13:02:53;10.10;99.90
18717;DHT22;9487;50.892;6.906;2023-02-03T13:05:27;10.10;99.90
18717;DHT22;9487;50.892;6.906;2023-02-03T13:08:00;10.20;99.90
18717;DHT22;9487;50.892;6.906;2023-02-03T13:10:33;10.10;99.90
18717;DHT22;9487;50.892;6.906;2023-02-03T13:13:02;10.10;99.90
18717;DHT22;9487;50.892;6.906;2023-02-03T13:15:36;10.00;99.90
18717;DHT22;9487;50.892;6.906;2023-02-03T13:18:13;10.10;99.90
18717;DHT22;9487;50.892;6.906;2023-02-03T13:20:44;10.00;99.90
18717;DHT22;9487;50.892;6.906;2023-02-03T13:23:13;10.10;99.90
18717;DHT22;9487;50.892;6.906;2023-02-03T13:25:49;10.10;99.90
18717;DHT22;9487;50.892;6.906;2023-02-03T13:28:22;10.00;99.90
18717;DHT22;9487;50.892;6.906;2023-02-03T13:31:11;10.00;99.90
18717;DHT22;9487;50.892;6.906;2023-02-03T13:34:06;10.00;99.90
18717;DHT22;9487;50.892;6.906;2023-02-03T13:39:49;10.10;99.90
18717;DHT22;9487;50.892;6.906;2023-02-03T13:42:23;10.00;99.90
18717;DHT22;9487;50.892;6.906;2023-02-03T13:44:53;9.90;99.90
18717;DHT22;9487;50.892;6.906;2023-02-03T13:47:24;10.00;99.90
18717;DHT22;9487;50.892;6.906;2023-02-03T13:49:55;9.90;99.90
18717;DHT22;9487;50.892;6.906;2023-02-03T13:52:27;9.70;99.90
18717;DHT22;9487;50.892;6.906;2023-02-03T13:54:56;9.80;99.90
18717;DHT22;9487;50.892;6.906;2023-02-03T13:57:27;9.80;99.90
18717;DHT22;9487;50.892;6.906;2023-02-03T13:59:58;9.70;99.90
18717;DHT22;9487;50.892;6.906;2023-02-03T14:02:39;9.60;99.90
18717;DHT22;9487;50.892;6.906;2023-02-03T14:05:21;9.60;99.90
18717;DHT22;9487;50.892;6.906;2023-02-03T14:11:39;9.70;99.90
18717;DHT22;9487;50.892;6.906;2023-02-03T14:14:40;9.70;99.90
18717;DHT22;9487;50.892;6.906;2023-02-03T14:20:48;9.70;99.90
18717;DHT22;9487;50.892;6.906;2023-02-03T14:23:20;9.60;99.90
18717;DHT22;9487;50.892;6.906;2023-02-03T14:25:50;9.60;99.90
18717;DHT22;9487;50.892;6.906;2023-02-03T14:28:21;9.60;99.90
18717;DHT22;9487;50.892;6.906;2023-02-03T14:31:06;9.70;99.90
18717;DHT22;9487;50.892;6.906;2023-02-03T14:33:56;9.70;99.90
18717;DHT22;9487;50.892;6.906;2023-02-03T14:36:28;9.80;99.90
18717;DHT22;9487;50.892;6.906;2023-02-03T14:38:58;9.80;99.90
18717;DHT22;9487;50.892;6.906;2023-02-03T14:41:32;9.70;99.90
18717;DHT22;9487;50.892;6.906;2023-02-03T14:44:09;9.60;99.90
18717;DHT22;9487;50.892;6.906;2023-02-03T14:46:56;9.80;99.90
18717;DHT22;9487;50.892;6.906;2023-02-03T14:49:44;9.80;99.90
18717;DHT22;9487;50.892;6.906;2023-02-03T14:52:21;9.80;99.90
18717;DHT22;9487;50.892;6.906;2023-02-03T14:55:12;9.90;99.90
18717;DHT22;9487;50.892;6.906;2023-02-03T14:57:44;10.00;99.90
18717;DHT22;9487;50.892;6.906;2023-02-03T15:00:33;10.00;99.90
18717;DHT22;9487;50.892;6.906;2023-02-03T15:03:19;9.90;99.90
18717;DHT22;9487;50.892;6.906;2023-02-03T15:05:49;10.00;99.90
18717;DHT22;9487;50.892;6.906;2023-02-03T15:08:39;10.00;99.90
18717;DHT22;9487;50.892;6.906;2023-02-03T15:11:30;10.00;99.90
18717;DHT22;9487;50.892;6.906;2023-02-03T15:14:14;9.90;99.90
18717;DHT22;9487;50.892;6.906;2023-02-03T15:16:46;9.90;99.90
18717;DHT22;9487;50.892;6.906;2023-02-03T15:19:16;9.90;99.90
18717;DHT22;9487;50.892;6.906;2023-02-03T15:21:43;9.90;99.90
18717;DHT22;9487;50.892;6.906;2023-02-03T15:24:13;10.00;99.90
18717;DHT22;9487;50.892;6.906;2023-02-03T15:26:44;10.10;99.90
18717;DHT22;9487;50.892;6.906;2023-02-03T15:29:18;9.90;99.90
18717;DHT22;9487;50.892;6.906;2023-02-03T15:31:51;10.00;99.90
18717;DHT22;9487;50.892;6.906;2023-02-03T15:34:23;10.00;99.90
18717;DHT22;9487;50.892;6.906;2023-02-03T15:36:54;10.00;99.90
18717;DHT22;9487;50.892;6.906;2023-02-03T15:39:43;10.00;99.90
18717;DHT22;9487;50.892;6.906;2023-02-03T15:42:16;10.00;99.90
18717;DHT22;9487;50.892;6.906;2023-02-03T15:44:51;10.00;99.90
18717;DHT22;9487;50.892;6.906;2023-02-03T15:47:25;10.00;99.90
18717;DHT22;9487;50.892;6.906;2023-02-03T15:50:00;10.10;99.90
18717;DHT22;9487;50.892;6.906;2023-02-03T15:52:28;10.10;99.90
18717;DHT22;9487;50.892;6.906;2023-02-03T15:55:05;10.10;99.90
18717;DHT22;9487;50.892;6.906;2023-02-03T15:57:35;10.10;99.90
18717;DHT22;9487;50.892;6.906;2023-02-03T16:00:10;10.10;99.90
18717;DHT22;9487;50.892;6.906;2023-02-03T16:02:42;10.10;99.90
18717;DHT22;9487;50.892;6.906;2023-02-03T16:05:26;10.10;99.90
18717;DHT22;9487;50.892;6.906;2023-02-03T16:07:53;10.00;99.90
18717;DHT22;9487;50.892;6.906;2023-02-03T16:10:28;10.10;99.90
18717;DHT22;9487;50.892;6.906;2023-02-03T16:13:19;10.10;99.90
18717;DHT22;9487;50.892;6.906;2023-02-03T16:16:01;10.10;99.90
18717;DHT22;9487;50.892;6.906;2023-02-03T16:18:32;10.10;99.90
18717;DHT22;9487;50.892;6.906;2023-02-03T16:21:00;10.10;99.90
18717;DHT22;9487;50.892;6.906;2023-02-03T16:23:27;10.10;99.90
18717;DHT22;9487;50.892;6.906;2023-02-03T16:26:16;10.00;99.90
18717;DHT22;9487;50.892;6.906;2023-02-03T16:28:53;10.00;99.90
18717;DHT22;9487;50.892;6.906;2023-02-03T16:31:42;10.00;99.90
18717;DHT22;9487;50.892;6.906;2023-02-03T16:34:28;9.90;99.90
18717;DHT22;9487;50.892;6.906;2023-02-03T16:37:22;9.80;99.90
18717;DHT22;9487;50.892;6.906;2023-02-03T16:40:07;9.70;99.90
18717;DHT22;9487;50.892;6.906;2023-02-03T16:42:51;9.60;99.90
18717;DHT22;9487;50.892;6.906;2023-02-03T16:45:35;9.50;99.90